Aérodrome :
LOGIN :

S'inscrire | Disclaimer

   EN    FR    IT 

 










Légende :    VFR   VFR Marginal   IFR   IFR Intensif   IFR Très Intensif
Visi : 
Plafond : 
>= 8 km
>= 3000ft
5 à 8 km
1000 à 3000 ft
1500m à 5 km
500 à 1000 ft
800 à 1500m
200 à 500 ft
< 800m
< 200 ft
Symboles :   Orages  Brouillard  Fortes neiges  Fortes précipitations  Vent > 20 kt
SIGMETs :   Divers  Orages  Givrage  Turbulence  Onde Orograph.  Cendres Volcan.






- Altitude de l'aérodrome : 157 ft


LESB - Son Bonet

DERNIER METAR :
  • 230100Z AUTO 34004KT CAVOK 23/16 Q1019

METARs EXPIRÉS :
  • 230030Z AUTO 34003KT 300V020 CAVOK 23/16 Q1019
  • 230000Z AUTO 35005KT CAVOK 23/16 Q1019
  • 222330Z AUTO 35003KT CAVOK 23/17 Q1019
  • 222300Z AUTO 35004KT CAVOK 24/18 Q1019
  • 222230Z AUTO 08003KT CAVOK 24/20 Q1019
  • 222200Z AUTO 08004KT CAVOK 24/20 Q1019
  • 222130Z AUTO 09004KT CAVOK 25/20 Q1019
  • 222100Z AUTO 09005KT CAVOK 25/20 Q1019
  • 222030Z AUTO 09006KT CAVOK 25/19 Q1019

TAF N/A



MET'MAP, la Météo Aéronautique d'un coup d'oeil ! - Copyright ORBIFLY Décembre 2007 - Disclaimer

ORBIFLY MET'MAP TEAM :

Programmation & Développement : Alexandra Zaïnal
Sur une idée originale de : Baudouin d'Aumeries
Soutien technique & logistique : Manuel Goepfert
Assistance : Marc-Olivier Méhu




SOURCES & CREDITS :

   NOAA